Time;durP1;ratioP1;P1;durP2;ratioP2;P2;SDS_P1;SDS_P2;PMS_P1;PMS_P2;Temp;Humidity;BMP_temperature;BMP_pressure;BME280_temperature;BME280_humidity;BME280_pressure;Samples;Min_cycle;Max_cycle;Signal;HPM_P1;HPM_P2
2022/03/14 00:01:32;;;;;;;78.32;69.55;;;;;;;-1.24;100.00;102797.06;5080329;28;20134;-80
2022/03/14 00:03:59;;;;;;;84.55;65.40;;;;;;;-1.34;100.00;102795.88;5092622;28;20040;-80
2022/03/14 00:06:27;;;;;;;81.85;67.72;;;;;;;-1.39;100.00;102806.53;5092422;28;20100;-78
2022/03/14 00:08:57;;;;;;;78.25;65.60;;;;;;;-1.28;100.00;102809.44;5092854;28;20113;-81
2022/03/14 00:11:26;;;;;;;73.47;61.55;;;;;;;-1.27;100.00;102807.66;5090381;28;20117;-78
2022/03/14 00:13:56;;;;;;;77.80;61.00;;;;;;;-1.39;100.00;102809.97;5087458;28;20052;-79
2022/03/14 00:16:25;;;;;;;73.10;61.22;;;;;;;-1.46;100.00;102807.75;5092409;28;20076;-80
2022/03/14 00:18:53;;;;;;;75.05;66.28;;;;;;;-1.81;100.00;102806.91;5095221;28;20039;-79
2022/03/14 00:21:21;;;;;;;79.63;61.20;;;;;;;-1.93;100.00;102816.97;5092088;28;20079;-82
2022/03/14 00:23:48;;;;;;;76.05;60.92;;;;;;;-1.99;100.00;102813.81;5095816;28;20044;-80
2022/03/14 00:26:16;;;;;;;74.00;66.25;;;;;;;-2.27;100.00;102812.50;5096815;28;20044;-80
2022/03/14 00:28:43;;;;;;;76.55;67.40;;;;;;;-2.04;100.00;102807.97;5093792;28;20048;-78
2022/03/14 00:31:10;;;;;;;75.32;61.63;;;;;;;-1.90;100.00;102810.78;5079231;28;20084;-80
2022/03/14 00:33:39;;;;;;;75.93;65.75;;;;;;;-1.91;100.00;102814.28;5086591;28;20117;-81
2022/03/14 00:36:07;;;;;;;83.70;71.85;;;;;;;-1.93;100.00;102808.31;5095929;28;20047;-80
2022/03/14 00:38:34;;;;;;;83.07;69.90;;;;;;;-2.09;100.00;102814.25;5096272;28;20454;-81
2022/03/14 00:41:01;;;;;;;74.35;61.42;;;;;;;-2.08;100.00;102821.16;5095571;28;20495;-80
2022/03/14 00:43:29;;;;;;;75.78;65.85;;;;;;;-2.07;100.00;102811.56;5095533;28;20060;-80
2022/03/14 00:45:56;;;;;;;64.10;54.75;;;;;;;-2.71;100.00;102817.97;5084151;28;20052;-79
2022/03/14 00:48:22;;;;;;;67.97;55.25;;;;;;;-2.49;100.00;102825.66;5095765;28;20039;-80
2022/03/14 00:50:50;;;;;;;78.50;64.03;;;;;;;-2.48;100.00;102819.56;5095725;28;20484;-80
2022/03/14 00:53:17;;;;;;;79.63;63.97;;;;;;;-2.72;100.00;102823.22;5094971;28;20404;-81
2022/03/14 00:55:43;;;;;;;84.95;75.28;;;;;;;-2.50;100.00;102831.78;5095268;28;20186;-79
2022/03/14 00:58:10;;;;;;;74.38;63.55;;;;;;;-2.65;100.00;102825.50;5095763;28;20048;-80
2022/03/14 01:00:39;;;;;;;82.50;65.25;;;;;;;-2.59;100.00;102820.03;5087145;28;20053;-80
2022/03/14 01:03:05;;;;;;;77.60;66.45;;;;;;;-2.53;100.00;102827.56;5095121;28;20522;-78
2022/03/14 01:05:32;;;;;;;82.47;66.28;;;;;;;-2.66;100.00;102831.63;5094705;28;20043;-78
2022/03/14 01:07:59;;;;;;;84.50;67.88;;;;;;;-2.59;100.00;102825.22;5094610;28;20048;-80
2022/03/14 01:10:26;;;;;;;89.68;66.53;;;;;;;-2.78;100.00;102829.56;5094942;28;20143;-81
2022/03/14 01:12:54;;;;;;;91.65;71.53;;;;;;;-2.74;100.00;102827.69;5095445;28;20116;-80
2022/03/14 01:15:21;;;;;;;87.25;65.13;;;;;;;-2.92;100.00;102830.16;5079706;28;20044;-80
2022/03/14 01:17:49;;;;;;;80.88;61.42;;;;;;;-3.29;100.00;102829.13;5092273;28;20434;-80
2022/03/14 01:20:16;;;;;;;83.97;64.85;;;;;;;-3.10;100.00;102836.16;5094819;28;20604;-81
2022/03/14 01:22:42;;;;;;;79.55;67.13;;;;;;;-2.99;100.00;102839.16;5088397;28;20048;-79
2022/03/14 01:25:09;;;;;;;79.78;61.25;;;;;;;-3.14;100.00;102845.84;5094880;28;20044;-78
2022/03/14 01:27:36;;;;;;;70.57;59.83;;;;;;;-3.44;100.00;102839.34;5094726;28;20060;-81
2022/03/14 01:30:04;;;;;;;74.72;62.55;;;;;;;-3.35;100.00;102845.00;5083079;28;20056;-80
2022/03/14 01:32:30;;;;;;;70.03;60.83;;;;;;;-3.27;100.00;102850.72;5089189;28;20044;-82
2022/03/14 01:34:58;;;;;;;64.65;55.38;;;;;;;-3.12;100.00;102853.56;5094821;28;20055;-80
2022/03/14 01:37:25;;;;;;;61.28;54.65;;;;;;;-3.04;100.00;102852.34;5094801;28;20048;-81
2022/03/14 01:39:52;;;;;;;63.10;56.50;;;;;;;-3.30;100.00;102837.00;5094750;28;20055;-80
2022/03/14 01:42:20;;;;;;;65.18;58.28;;;;;;;-3.31;100.00;102845.69;5094002;28;20077;-80
2022/03/14 01:44:47;;;;;;;58.20;51.90;;;;;;;-3.29;100.00;102847.34;5083621;28;20472;-79
2022/03/14 01:47:15;;;;;;;60.20;53.92;;;;;;;-3.25;100.00;102848.03;5087153;28;20109;-81
2022/03/14 01:49:42;;;;;;;68.85;60.58;;;;;;;-3.13;100.00;102850.13;5091730;28;20132;-81
2022/03/14 01:52:10;;;;;;;64.63;57.35;;;;;;;-3.18;100.00;102852.06;5094364;28;20048;-79
2022/03/14 01:54:38;;;;;;;70.10;62.63;;;;;;;-3.16;100.00;102852.03;5094174;28;20044;-80
2022/03/14 01:57:06;;;;;;;71.22;62.92;;;;;;;-3.18;100.00;102846.88;5086616;28;20049;-80
2022/03/14 01:59:33;;;;;;;61.72;55.42;;;;;;;-3.40;100.00;102854.72;5094944;28;20048;-83
2022/03/14 02:02:01;;;;;;;64.32;58.17;;;;;;;-3.72;100.00;102856.03;5093987;28;20445;-79
2022/03/14 02:04:27;;;;;;;65.15;58.17;;;;;;;-3.97;100.00;102856.13;5094357;28;20121;-78
2022/03/14 02:06:57;;;;;;;59.53;52.53;;;;;;;-3.92;100.00;102867.19;5093436;28;20550;-80
2022/03/14 02:09:25;;;;;;;66.22;57.00;;;;;;;-4.08;100.00;102860.91;5085271;28;20048;-80
2022/03/14 02:12:05;;;;;;;66.68;56.33;;;;;;;-3.76;100.00;102870.03;5094032;28;20036;-80
2022/03/14 02:14:31;;;;;;;70.55;57.85;;;;;;;-3.77;100.00;102873.56;5094409;28;20133;-80
2022/03/14 02:16:58;;;;;;;73.20;60.17;;;;;;;-3.80;100.00;102871.06;5085193;28;20135;-78
2022/03/14 02:19:25;;;;;;;70.50;59.28;;;;;;;-3.74;100.00;102879.47;5087005;28;20051;-80
2022/03/14 02:21:53;;;;;;;63.85;55.78;;;;;;;-3.94;100.00;102884.56;5085262;28;20048;-80
2022/03/14 02:24:20;;;;;;;64.18;56.90;;;;;;;-3.89;100.00;102887.84;5093502;28;20044;-81
2022/03/14 02:26:47;;;;;;;64.50;57.45;;;;;;;-3.85;100.00;102892.00;5088394;28;20044;-79
2022/03/14 02:29:13;;;;;;;69.90;61.17;;;;;;;-3.95;100.00;102891.53;5094381;28;20061;-80
2022/03/14 02:31:43;;;;;;;66.88;59.13;;;;;;;-3.83;100.00;102891.97;5093365;28;20109;-82
2022/03/14 02:34:09;;;;;;;66.70;59.42;;;;;;;-3.91;100.00;102893.09;5093203;28;20491;-81
2022/03/14 02:36:37;;;;;;;63.33;56.53;;;;;;;-4.15;100.00;102894.84;5088842;28;20052;-79
2022/03/14 02:39:06;;;;;;;70.70;60.03;;;;;;;-4.42;100.00;102896.75;5093681;28;20109;-82
2022/03/14 02:41:32;;;;;;;74.55;58.30;;;;;;;-4.37;100.00;102900.00;5093307;28;20051;-81
2022/03/14 02:43:59;;;;;;;65.97;55.13;;;;;;;-4.29;100.00;102897.13;5089707;28;20055;-79
2022/03/14 02:46:26;;;;;;;71.63;61.30;;;;;;;-4.50;100.00;102903.13;5085607;28;20078;-80
2022/03/14 02:48:53;;;;;;;66.18;58.78;;;;;;;-4.26;100.00;102898.78;5093563;28;20051;-80
2022/03/14 02:51:20;;;;;;;59.30;50.00;;;;;;;-4.24;100.00;102908.19;5093116;28;20106;-79
2022/03/14 02:53:47;;;;;;;60.67;53.83;;;;;;;-4.43;100.00;102905.41;5093605;28;20121;-78
2022/03/14 02:56:15;;;;;;;65.13;56.55;;;;;;;-4.41;100.00;102914.00;5086609;28;20121;-80
2022/03/14 02:58:42;;;;;;;64.47;57.42;;;;;;;-4.43;100.00;102912.34;5093082;28;20047;-79
2022/03/14 03:03:27;;;;;;;69.75;61.97;;;;;;;-4.66;100.00;102918.34;4853023;27;8178041;-82
2022/03/14 03:05:54;;;;;;;67.68;58.63;;;;;;;-4.61;100.00;102911.25;5131416;28;20047;-81
2022/03/14 03:08:22;;;;;;;66.90;57.33;;;;;;;-4.63;100.00;102919.09;5131313;28;20129;-81
2022/03/14 03:10:49;;;;;;;63.60;55.55;;;;;;;-4.61;100.00;102917.28;5130858;28;20054;-79
2022/03/14 03:13:17;;;;;;;64.40;57.47;;;;;;;-4.63;100.00;102924.28;5130899;28;20478;-80
2022/03/14 03:15:43;;;;;;;65.25;58.30;;;;;;;-4.56;100.00;102927.50;5130971;28;20650;-82
2022/03/14 03:18:11;;;;;;;65.68;58.47;;;;;;;-4.63;100.00;102936.38;5131350;28;20054;-80
2022/03/14 03:20:39;;;;;;;68.45;59.92;;;;;;;-4.65;100.00;102933.88;5130567;28;20039;-81
2022/03/14 03:23:06;;;;;;;59.72;53.35;;;;;;;-4.60;100.00;102944.06;5130859;28;20048;-81
2022/03/14 03:25:33;;;;;;;65.20;58.53;;;;;;;-4.57;100.00;102943.13;5131711;28;20059;-81
2022/03/14 03:27:59;;;;;;;68.88;60.72;;;;;;;-4.46;100.00;102943.59;5130898;28;20040;-79
2022/03/14 03:30:27;;;;;;;60.80;54.28;;;;;;;-4.43;100.00;102946.91;5130722;28;20043;-84
2022/03/14 03:32:53;;;;;;;71.72;59.38;;;;;;;-4.46;100.00;102952.22;5131026;28;20055;-80
2022/03/14 03:35:20;;;;;;;70.15;55.92;;;;;;;-4.28;100.00;102949.88;5121956;28;20047;-81
2022/03/14 03:37:48;;;;;;;71.72;62.67;;;;;;;-4.22;100.00;102950.50;5130335;28;20047;-83
2022/03/14 03:40:15;;;;;;;293.50;118.57;;;;;;;-4.09;100.00;102961.28;5130730;28;20112;-81
2022/03/14 03:42:42;;;;;;;494.75;176.95;;;;;;;-4.07;100.00;102963.84;5130491;28;20051;-80
2022/03/14 03:45:10;;;;;;;84.72;64.57;;;;;;;-4.22;100.00;102960.03;5130524;28;20044;-82
2022/03/14 03:47:37;;;;;;;60.10;52.70;;;;;;;-4.42;100.00;102960.75;5130591;28;20059;-81
2022/03/14 03:50:04;;;;;;;62.80;53.78;;;;;;;-4.39;100.00;102965.81;5130367;28;20055;-82
2022/03/14 03:52:30;;;;;;;98.90;68.15;;;;;;;-4.09;100.00;102973.41;5130906;28;20055;-80
2022/03/14 03:54:59;;;;;;;118.90;71.05;;;;;;;-3.98;100.00;102982.50;5130412;28;20055;-79
2022/03/14 03:57:26;;;;;;;192.60;93.95;;;;;;;-3.96;100.00;102979.88;5130616;28;20119;-81
2022/03/14 03:59:53;;;;;;;285.77;126.10;;;;;;;-3.82;100.00;102987.97;5125373;28;20055;-82
2022/03/14 04:02:20;;;;;;;306.98;131.65;;;;;;;-3.99;100.00;102973.03;5121981;28;20051;-80
2022/03/14 04:04:47;;;;;;;282.00;113.10;;;;;;;-3.91;100.00;102975.34;5129971;28;20047;-80
2022/03/14 04:07:16;;;;;;;386.88;153.45;;;;;;;-3.85;100.00;102988.09;5130243;28;20048;-81
2022/03/14 04:09:43;;;;;;;364.40;141.75;;;;;;;-3.91;100.00;102990.91;5129996;28;20055;-82
2022/03/14 04:12:11;;;;;;;380.85;139.43;;;;;;;-3.78;100.00;102993.91;5129523;28;20112;-81
2022/03/14 04:14:38;;;;;;;382.73;154.13;;;;;;;-3.78;100.00;102988.69;5110610;28;20120;-83
2022/03/14 04:17:07;;;;;;;441.05;181.85;;;;;;;-3.79;100.00;102989.63;5106922;28;20048;-80
2022/03/14 04:19:34;;;;;;;407.63;170.35;;;;;;;-3.80;100.00;102990.53;5116592;28;20387;-80
2022/03/14 04:22:01;;;;;;;401.08;165.90;;;;;;;-3.57;100.00;102992.25;5116201;28;20071;-82
2022/03/14 04:24:28;;;;;;;345.90;153.25;;;;;;;-3.48;100.00;102991.88;5115630;28;20475;-83
2022/03/14 04:26:55;;;;;;;266.38;131.70;;;;;;;-3.41;100.00;102990.78;5115915;28;20108;-82
2022/03/14 04:29:23;;;;;;;260.27;130.52;;;;;;;-3.43;100.00;103004.72;5111562;28;20109;-79
2022/03/14 04:31:49;;;;;;;307.00;145.13;;;;;;;-3.57;100.00;103002.63;5104495;28;20064;-79
2022/03/14 04:34:16;;;;;;;238.43;115.30;;;;;;;-3.59;100.00;103002.72;5115831;28;20472;-82
2022/03/14 04:36:43;;;;;;;209.05;105.10;;;;;;;-3.91;100.00;102996.94;5115817;28;20051;-80
2022/03/14 04:39:10;;;;;;;151.40;86.53;;;;;;;-3.92;100.00;103003.06;5115758;28;20116;-79
2022/03/14 04:41:37;;;;;;;157.50;86.80;;;;;;;-4.02;100.00;103006.06;5115188;28;20460;-79
2022/03/14 04:44:05;;;;;;;131.25;81.47;;;;;;;-4.15;100.00;103013.41;5115232;28;20726;-80
2022/03/14 04:46:34;;;;;;;127.82;79.43;;;;;;;-4.13;100.00;103016.81;5116044;28;20386;-81
2022/03/14 04:49:01;;;;;;;140.00;80.63;;;;;;;-4.11;100.00;103009.81;5115656;28;20133;-83
2022/03/14 04:52:53;;;;;;;154.55;88.05;;;;;;;-3.70;100.00;103033.44;5082715;27;20398;-82
2022/03/14 04:55:20;;;;;;;160.52;88.88;;;;;;;-3.58;100.00;103025.19;5070245;28;20392;-81
2022/03/14 04:57:47;;;;;;;105.97;71.18;;;;;;;-3.83;100.00;103025.25;5070204;28;20056;-81
2022/03/14 05:00:15;;;;;;;110.22;71.57;;;;;;;-3.91;100.00;103022.06;5067128;28;20057;-79
2022/03/14 05:02:41;;;;;;;108.05;71.57;;;;;;;-3.82;100.00;103026.94;5070027;28;20451;-81
2022/03/14 05:05:11;;;;;;;103.25;69.53;;;;;;;-3.71;100.00;103032.59;5069946;28;20053;-81
2022/03/14 05:07:37;;;;;;;99.85;71.90;;;;;;;-3.56;100.00;103035.53;5069962;28;20074;-83
2022/03/14 05:10:07;;;;;;;101.75;73.18;;;;;;;-3.60;100.00;103034.81;5070227;28;20125;-82
2022/03/14 05:12:34;;;;;;;109.70;74.18;;;;;;;-3.66;100.00;103047.16;5069273;28;20051;-83
2022/03/14 05:15:01;;;;;;;108.70;77.90;;;;;;;-3.38;100.00;103050.41;5067016;28;20544;-79
2022/03/14 05:17:29;;;;;;;106.22;71.72;;;;;;;-3.44;100.00;103053.25;5069936;28;20114;-81
2022/03/14 05:19:56;;;;;;;108.53;75.53;;;;;;;-3.20;100.00;103054.06;5069962;28;20049;-80
2022/03/14 05:22:23;;;;;;;123.28;78.35;;;;;;;-3.11;100.00;103061.50;5069084;28;20454;-81
2022/03/14 05:24:50;;;;;;;145.45;81.68;;;;;;;-3.27;100.00;103063.00;5069600;28;20125;-80
2022/03/14 05:27:18;;;;;;;148.98;83.47;;;;;;;-2.85;100.00;103068.28;5065834;28;20135;-79
2022/03/14 05:29:44;;;;;;;149.90;86.75;;;;;;;-2.84;100.00;103069.13;5050722;28;20061;-81
2022/03/14 05:32:11;;;;;;;139.68;85.82;;;;;;;-2.65;100.00;103077.88;5053508;28;20465;-79
2022/03/14 05:34:38;;;;;;;156.18;88.15;;;;;;;-2.92;100.00;103071.19;5054785;28;20127;-80
2022/03/14 05:42:27;;;;;;;134.75;86.80;;;;;;;-2.56;100.00;103074.06;5086424;27;20904;-80
2022/03/14 05:44:54;;;;;;;125.43;80.07;;;;;;;-2.58;100.00;103073.28;5070088;28;20071;-81
2022/03/14 05:47:21;;;;;;;121.65;80.90;;;;;;;-2.46;100.00;103090.13;5076124;28;20044;-83
2022/03/14 05:49:47;;;;;;;126.35;82.20;;;;;;;-2.52;100.00;103093.84;5072319;28;20468;-82
2022/03/14 05:52:14;;;;;;;132.93;83.97;;;;;;;-2.40;100.00;103100.28;5072282;28;20045;-80
2022/03/14 05:54:41;;;;;;;125.88;86.30;;;;;;;-2.20;100.00;103102.09;5077294;28;20082;-80
2022/03/14 05:57:08;;;;;;;142.32;89.45;;;;;;;-2.17;100.00;103100.19;5082526;28;20506;-80
2022/03/14 05:59:36;;;;;;;131.05;93.07;;;;;;;-2.15;100.00;103098.38;5071288;28;20053;-80
2022/03/14 06:02:03;;;;;;;131.98;89.93;;;;;;;-2.09;100.00;103103.31;5075515;28;20052;-81
2022/03/14 06:04:30;;;;;;;144.45;106.78;;;;;;;-1.91;100.00;103101.66;5073769;28;20505;-80
2022/03/14 06:06:57;;;;;;;127.80;95.68;;;;;;;-1.95;100.00;103104.47;5061343;28;20119;-82
2022/03/14 06:09:25;;;;;;;137.23;100.05;;;;;;;-1.89;100.00;103107.66;5076656;28;20135;-81
2022/03/14 06:11:52;;;;;;;144.95;100.25;;;;;;;-1.85;100.00;103111.84;5063482;28;20535;-80
2022/03/14 06:14:19;;;;;;;143.18;99.72;;;;;;;-1.73;100.00;103107.00;5073747;28;20117;-79
2022/03/14 06:16:47;;;;;;;136.70;100.65;;;;;;;-1.71;100.00;103110.38;5071952;28;20045;-81
2022/03/14 06:19:14;;;;;;;120.03;84.85;;;;;;;0.63;100.00;103114.59;5068243;28;20447;-81
2022/03/14 06:21:41;;;;;;;129.73;87.93;;;;;;;2.82;100.00;103123.75;5077724;28;20055;-82
2022/03/14 06:24:08;;;;;;;122.13;104.03;;;;;;;0.64;100.00;103120.69;5069584;28;20056;-79
2022/03/14 06:26:35;;;;;;;118.80;101.30;;;;;;;-1.12;100.00;103109.47;5071027;28;20128;-80
2022/03/14 06:29:03;;;;;;;94.28;84.38;;;;;;;-1.17;100.00;103117.47;5073889;28;20122;-79
2022/03/14 06:31:31;;;;;;;93.13;83.38;;;;;;;-1.21;100.00;103120.28;5069577;28;20041;-82
2022/03/14 06:34:00;;;;;;;116.68;91.30;;;;;;;-1.08;100.00;103134.47;5077404;28;20090;-82
2022/03/14 06:36:28;;;;;;;146.18;117.88;;;;;;;-0.92;100.00;103134.59;5068460;28;20044;-80
2022/03/14 06:38:56;;;;;;;122.55;101.45;;;;;;;-0.78;100.00;103126.97;5077255;28;20132;-79
2022/03/14 06:41:24;;;;;;;138.13;114.95;;;;;;;-0.17;100.00;103143.19;5071783;28;20045;-82
2022/03/14 06:43:52;;;;;;;134.10;118.50;;;;;;;0.43;100.00;103147.03;5075333;28;20052;-80
2022/03/14 06:46:19;;;;;;;145.30;120.53;;;;;;;-0.56;100.00;103137.22;5069225;28;20053;-80
2022/03/14 06:48:49;;;;;;;158.00;124.05;;;;;;;-0.85;100.00;103142.97;5078543;28;20080;-80
2022/03/14 06:51:24;;;;;;;161.90;133.40;;;;;;;-0.43;100.00;103160.97;5081428;28;20080;-81
2022/03/14 06:53:51;;;;;;;151.70;123.25;;;;;;;-0.22;100.00;103168.69;5069641;28;20053;-79
2022/03/14 06:56:18;;;;;;;127.60;103.47;;;;;;;-0.44;100.00;103163.66;5060165;28;20049;-79
2022/03/14 06:58:45;;;;;;;97.28;81.60;;;;;;;-0.22;100.00;103161.69;5061553;28;20440;-80
2022/03/14 07:01:13;;;;;;;102.72;91.55;;;;;;;0.35;100.00;103167.50;5055819;28;20109;-81
2022/03/14 07:03:42;;;;;;;101.55;90.97;;;;;;;0.73;100.00;103169.91;5071562;28;20143;-80
2022/03/14 07:06:09;;;;;;;100.55;89.82;;;;;;;0.80;100.00;103167.78;5057555;28;20052;-80
2022/03/14 07:08:40;;;;;;;95.90;86.43;;;;;;;0.77;100.00;103168.78;5055451;28;20083;-80
2022/03/14 07:11:07;;;;;;;101.57;90.40;;;;;;;0.91;100.00;103165.44;5047617;28;20057;-80
2022/03/14 07:13:34;;;;;;;112.53;100.55;;;;;;;1.20;100.00;103176.94;5064674;28;20056;-78
2022/03/14 07:16:01;;;;;;;113.60;101.57;;;;;;;2.93;100.00;103174.59;5057143;28;20056;-80
2022/03/14 07:18:29;;;;;;;102.43;91.90;;;;;;;1.57;100.00;103170.50;5051273;28;20072;-80
2022/03/14 07:20:56;;;;;;;98.50;88.55;;;;;;;1.06;100.00;103174.22;5062310;28;20056;-80
2022/03/14 07:23:23;;;;;;;100.18;89.68;;;;;;;0.62;100.00;103175.69;5053590;28;20053;-80
2022/03/14 07:25:53;;;;;;;95.03;85.38;;;;;;;0.64;100.00;103167.78;5076080;28;20060;-80
2022/03/14 07:28:20;;;;;;;94.63;84.75;;;;;;;0.64;100.00;103175.63;5066136;28;20049;-79
2022/03/14 07:30:47;;;;;;;109.32;95.65;;;;;;;0.74;100.00;103168.97;5065712;28;20108;-80
2022/03/14 07:33:13;;;;;;;109.70;98.40;;;;;;;1.36;100.00;103172.56;5064055;28;20083;-80
2022/03/14 07:35:43;;;;;;;104.88;93.97;;;;;;;1.27;100.00;103180.03;5075467;28;20060;-80
2022/03/14 07:38:10;;;;;;;110.47;98.25;;;;;;;1.23;100.00;103175.91;5069404;28;20481;-81
2022/03/14 07:40:38;;;;;;;102.55;90.88;;;;;;;1.81;100.00;103183.09;5067616;28;20080;-78
2022/03/14 07:43:06;;;;;;;113.85;100.50;;;;;;;1.81;100.00;103186.56;5081420;28;20078;-77
2022/03/14 07:45:33;;;;;;;106.65;95.60;;;;;;;2.08;100.00;103180.66;5070270;28;20049;-79
2022/03/14 07:48:01;;;;;;;100.60;90.28;;;;;;;1.73;100.00;103186.19;5070303;28;20114;-80
2022/03/14 07:50:29;;;;;;;104.88;93.95;;;;;;;1.95;100.00;103184.94;5075451;28;20130;-80
2022/03/14 07:52:58;;;;;;;118.97;105.25;;;;;;;1.93;100.00;103187.63;5076964;28;20121;-81
2022/03/14 07:55:25;;;;;;;103.28;92.60;;;;;;;1.63;100.00;103182.38;5068932;28;20053;-79
2022/03/14 07:57:52;;;;;;;91.55;82.30;;;;;;;1.73;100.00;103187.97;5073488;28;20048;-79
2022/03/14 08:00:23;;;;;;;95.43;86.22;;;;;;;1.82;100.00;103185.66;5064046;28;20053;-80
2022/03/14 08:02:50;;;;;;;106.82;95.90;;;;;;;2.94;100.00;103173.69;5071541;28;20082;-77
2022/03/14 08:05:23;;;;;;;93.85;85.22;;;;;;;2.72;100.00;103181.19;5057691;28;20048;-78
2022/03/14 08:07:52;;;;;;;97.20;87.78;;;;;;;3.82;100.00;103179.41;5073766;28;20052;-79
2022/03/14 08:10:19;;;;;;;92.97;84.53;;;;;;;2.51;100.00;103178.97;5064357;28;20045;-80
2022/03/14 08:12:49;;;;;;;87.32;78.88;;;;;;;3.18;100.00;103176.56;5076460;28;20052;-79
2022/03/14 08:15:20;;;;;;;92.53;84.15;;;;;;;3.72;100.00;103182.72;5087149;28;20070;-79
2022/03/14 08:17:49;;;;;;;94.13;85.85;;;;;;;4.14;100.00;103181.66;5076296;28;20051;-77
2022/03/14 08:20:17;;;;;;;96.78;87.45;;;;;;;4.04;100.00;103177.97;5072986;28;20076;-80
2022/03/14 08:22:45;;;;;;;91.88;83.18;;;;;;;4.52;100.00;103176.44;5076463;28;20118;-80
2022/03/14 08:25:12;;;;;;;84.22;76.82;;;;;;;3.72;100.00;103177.47;5072615;28;20122;-80
2022/03/14 08:30:35;;;;;;;82.63;75.55;;;;;;;5.66;100.00;103184.97;5144492;27;20396;-79
2022/03/14 08:33:02;;;;;;;88.07;80.63;;;;;;;5.62;100.00;103182.66;5139629;28;20079;-79
2022/03/14 08:35:29;;;;;;;92.57;84.68;;;;;;;6.41;100.00;103184.59;5141417;28;20047;-79
2022/03/14 08:37:57;;;;;;;87.13;79.53;;;;;;;6.03;100.00;103194.59;5141151;28;20051;-79
2022/03/14 08:40:25;;;;;;;86.97;79.68;;;;;;;7.15;100.00;103183.25;5143787;28;20059;-79
2022/03/14 08:42:54;;;;;;;87.60;80.30;;;;;;;6.75;100.00;103186.44;5141554;28;20057;-77
2022/03/14 08:45:23;;;;;;;85.47;77.93;;;;;;;6.73;100.00;103183.06;5141550;28;20453;-80
2022/03/14 08:47:51;;;;;;;89.20;81.53;;;;;;;6.15;94.12;103180.47;5143487;28;20111;-78
2022/03/14 08:50:18;;;;;;;102.80;93.45;;;;;;;6.83;100.00;103178.72;5140876;28;20548;-79
2022/03/14 08:52:46;;;;;;;94.13;86.00;;;;;;;7.16;86.79;103169.06;5141502;28;20047;-80
2022/03/14 08:55:13;;;;;;;87.13;78.22;;;;;;;6.40;89.26;103174.16;5138818;28;20047;-78
2022/03/14 08:57:43;;;;;;;91.47;82.97;;;;;;;7.77;82.44;103164.88;5142354;28;20055;-80
2022/03/14 09:00:12;;;;;;;90.07;82.40;;;;;;;8.01;75.93;103167.28;5141306;28;20043;-80
2022/03/14 09:02:45;;;;;;;91.22;83.05;;;;;;;7.96;81.78;103168.66;5142270;28;20043;-80
2022/03/14 09:05:13;;;;;;;91.55;83.32;;;;;;;8.93;77.95;103159.38;5141204;27;20051;-78
2022/03/14 09:07:40;;;;;;;91.72;83.70;;;;;;;9.15;72.31;103166.25;5141763;28;20044;-78
2022/03/14 09:10:09;;;;;;;95.00;86.70;;;;;;;9.02;71.83;103167.50;5141703;28;20077;-79
2022/03/14 09:12:37;;;;;;;92.35;83.85;;;;;;;9.93;69.31;103168.94;5141293;28;20044;-79
2022/03/14 09:15:05;;;;;;;92.90;84.82;;;;;;;9.34;65.12;103170.75;5142926;28;20043;-78
2022/03/14 09:17:35;;;;;;;96.65;88.18;;;;;;;9.83;67.46;103158.34;5142350;28;20496;-80
2022/03/14 09:20:03;;;;;;;94.03;85.53;;;;;;;10.34;62.13;103156.28;5144507;28;20043;-78
2022/03/14 09:22:31;;;;;;;98.82;89.93;;;;;;;10.18;63.14;103159.53;5143400;28;20399;-80
2022/03/14 09:24:58;;;;;;;95.07;86.82;;;;;;;9.27;56.87;103163.50;5142076;28;20047;-79
2022/03/14 09:27:30;;;;;;;96.80;88.47;;;;;;;8.63;63.96;103148.81;5141295;28;20043;-80
2022/03/14 09:29:57;;;;;;;95.82;87.05;;;;;;;8.33;70.13;103153.13;5141280;28;20051;-81
2022/03/14 09:32:24;;;;;;;96.75;88.35;;;;;;;9.25;68.95;103150.34;5140999;28;20035;-80
2022/03/14 09:34:51;;;;;;;97.70;88.97;;;;;;;9.28;61.81;103151.91;5141533;28;20098;-80
2022/03/14 09:37:17;;;;;;;94.38;86.25;;;;;;;9.67;61.91;103155.41;5140951;28;20495;-79
2022/03/14 09:39:46;;;;;;;95.78;87.85;;;;;;;10.64;57.29;103149.88;5140372;28;20081;-79
2022/03/14 09:42:13;;;;;;;96.22;87.93;;;;;;;10.37;57.81;103155.16;5113832;28;20118;-79
2022/03/14 09:44:43;;;;;;;95.00;87.03;;;;;;;10.75;60.19;103148.84;5128876;28;20051;-81
2022/03/14 09:47:12;;;;;;;100.28;91.63;;;;;;;8.66;56.56;103145.91;5128544;28;20117;-78
2022/03/14 09:49:40;;;;;;;93.97;85.72;;;;;;;8.97;73.77;103146.69;5128864;28;20039;-80
2022/03/14 09:52:09;;;;;;;90.53;82.82;;;;;;;9.85;62.41;103143.09;5126996;28;20059;-78
2022/03/14 09:54:41;;;;;;;92.50;84.47;;;;;;;9.85;66.68;103145.75;5120497;28;20052;-80
2022/03/14 09:57:17;;;;;;;90.07;82.20;;;;;;;10.94;60.83;103137.25;5128312;28;20043;-77
2022/03/14 09:59:44;;;;;;;92.57;84.50;;;;;;;10.92;65.56;103140.09;5128111;28;20100;-79
2022/03/14 10:02:13;;;;;;;88.32;80.47;;;;;;;12.20;57.75;103138.88;5129976;28;20104;-79
2022/03/14 10:04:41;;;;;;;90.55;82.80;;;;;;;9.52;58.29;103141.72;5127699;28;20047;-77
2022/03/14 10:07:08;;;;;;;89.90;82.00;;;;;;;10.06;62.48;103142.09;5126604;28;20072;-79
2022/03/14 10:09:36;;;;;;;87.32;80.22;;;;;;;12.29;58.45;103135.25;5127401;28;20484;-80
2022/03/14 10:12:04;;;;;;;84.55;77.15;;;;;;;7.89;57.44;103143.66;5128407;28;20047;-79
2022/03/14 10:14:32;;;;;;;84.55;77.32;;;;;;;7.48;62.89;103140.84;5125935;28;20039;-77
2022/03/14 10:16:59;;;;;;;84.97;77.60;;;;;;;6.77;61.88;103136.94;5126446;28;20048;-78
2022/03/14 10:19:31;;;;;;;86.70;79.15;;;;;;;8.87;60.33;103140.53;5124895;28;20046;-79
2022/03/14 10:22:13;;;;;;;89.72;81.75;;;;;;;8.21;61.45;103138.28;5129464;28;20040;-79
2022/03/14 10:24:43;;;;;;;90.15;82.65;;;;;;;8.87;57.97;103135.25;5128702;28;20112;-81
2022/03/14 10:27:11;;;;;;;90.88;83.35;;;;;;;10.18;58.30;103132.97;5126021;28;20071;-79
2022/03/14 10:29:42;;;;;;;90.63;83.10;;;;;;;9.47;56.04;103137.81;5125136;28;20052;-79
2022/03/14 10:32:19;;;;;;;89.57;82.20;;;;;;;8.24;60.48;103133.56;5128976;28;20044;-80
2022/03/14 10:34:52;;;;;;;90.35;82.68;;;;;;;9.48;58.39;103126.25;5126481;28;20043;-81
2022/03/14 10:37:25;;;;;;;92.57;84.38;;;;;;;10.06;62.73;103129.63;5127324;28;20047;-80
2022/03/14 10:39:58;;;;;;;91.68;83.25;;;;;;;11.14;55.98;103119.38;5127030;28;20111;-81
2022/03/14 10:42:25;;;;;;;91.28;83.55;;;;;;;11.21;52.97;103113.28;5128865;28;20457;-77
2022/03/14 10:44:54;;;;;;;92.03;84.22;;;;;;;10.09;51.84;103118.72;5122066;28;20419;-80
2022/03/14 10:47:24;;;;;;;89.18;81.22;;;;;;;9.49;56.48;103122.59;5128164;28;20069;-79
2022/03/14 10:49:51;;;;;;;90.97;83.10;;;;;;;8.20;59.77;103115.41;5126230;28;20073;-80
2022/03/14 10:52:28;;;;;;;103.15;93.40;;;;;;;10.43;58.27;103107.59;5124256;28;20857;-81
2022/03/14 10:54:56;;;;;;;85.13;77.53;;;;;;;9.56;56.72;103107.78;5128302;28;20134;-79
2022/03/14 10:57:26;;;;;;;91.28;83.72;;;;;;;7.91;52.47;103112.63;5126329;28;20108;-80
2022/03/14 10:59:55;;;;;;;84.38;76.93;;;;;;;8.41;57.41;103120.69;5127158;28;20055;-80
2022/03/14 11:02:24;;;;;;;84.40;77.30;;;;;;;8.18;54.22;103110.25;5123146;28;20047;-80
2022/03/14 11:04:54;;;;;;;83.22;76.55;;;;;;;7.64;53.54;103102.56;5126998;28;20055;-79
2022/03/14 11:07:24;;;;;;;86.32;78.93;;;;;;;7.42;54.39;103103.50;5126054;28;20055;-79
2022/03/14 11:09:56;;;;;;;88.47;80.88;;;;;;;7.24;55.52;103101.41;5122698;28;20039;-79
2022/03/14 11:12:24;;;;;;;93.30;84.93;;;;;;;7.87;59.89;103105.91;5123802;28;20069;-79
2022/03/14 11:14:53;;;;;;;96.97;88.28;;;;;;;6.76;65.02;103111.50;5122942;28;20051;-80
2022/03/14 11:17:23;;;;;;;92.82;84.43;;;;;;;6.77;69.43;103111.34;5121623;28;20075;-77